Time;durP1;ratioP1;P1;durP2;ratioP2;P2;SDS_P1;SDS_P2;PMS_P1;PMS_P2;Temp;Humidity;BMP_temperature;BMP_pressure;BME280_temperature;BME280_humidity;BME280_pressure;Samples;Min_cycle;Max_cycle;Signal;HPM_P1;HPM_P2
2023/09/03 00:00:43;;;;;;;3.83;2.17;;;12.40;99.90;;;;;;5038150;28;20660;-84
2023/09/03 00:03:11;;;;;;;4.13;2.42;;;12.40;99.90;;;;;;5028667;28;20611;-83
2023/09/03 00:05:51;;;;;;;4.93;2.30;;;12.50;99.90;;;;;;5034892;28;20178;-83
2023/09/03 00:08:18;;;;;;;6.95;2.75;;;12.60;99.90;;;;;;5035197;28;20201;-83
2023/09/03 00:10:51;;;;;;;3.25;2.03;;;12.50;99.90;;;;;;5035751;28;20268;-83
2023/09/03 00:13:19;;;;;;;7.07;3.30;;;12.40;99.90;;;;;;5035583;28;20229;-83
2023/09/03 00:15:47;;;;;;;5.30;3.40;;;12.50;99.90;;;;;;5030007;28;20189;-83
2023/09/03 00:18:16;;;;;;;7.03;3.53;;;12.40;99.90;;;;;;5036946;28;20202;-83
2023/09/03 00:21:02;;;;;;;8.35;4.38;;;12.40;99.90;;;;;;5037150;28;20200;-83
2023/09/03 00:23:31;;;;;;;8.45;4.53;;;12.50;99.90;;;;;;5039822;28;20185;-83
2023/09/03 00:26:00;;;;;;;10.23;5.47;;;12.50;99.90;;;;;;5035333;28;20221;-83
2023/09/03 00:28:28;;;;;;;10.23;5.03;;;12.50;99.90;;;;;;5033787;28;20189;-83
2023/09/03 00:31:00;;;;;;;13.85;6.90;;;12.60;99.90;;;;;;5033768;28;20190;-83
2023/09/03 00:33:30;;;;;;;9.82;6.53;;;12.50;99.90;;;;;;5033904;28;20626;-83
2023/09/03 00:36:01;;;;;;;10.73;6.07;;;12.50;99.90;;;;;;5035079;28;20261;-83
2023/09/03 00:38:28;;;;;;;10.75;6.05;;;12.60;99.90;;;;;;5034813;28;20186;-83
2023/09/03 00:40:56;;;;;;;7.65;4.55;;;12.60;99.90;;;;;;5030719;28;20228;-84
2023/09/03 00:43:24;;;;;;;9.50;5.40;;;12.70;99.90;;;;;;5033895;28;20651;-83
2023/09/03 00:45:52;;;;;;;7.85;5.55;;;12.70;99.90;;;;;;5036596;28;20190;-82
2023/09/03 00:48:23;;;;;;;10.30;5.28;;;12.70;99.90;;;;;;5034733;28;20221;-84
2023/09/03 00:50:52;;;;;;;8.05;5.10;;;12.70;99.90;;;;;;5038661;28;20571;-83
2023/09/03 00:53:21;;;;;;;9.60;5.03;;;12.70;99.90;;;;;;5043077;28;20193;-84
2023/09/03 00:55:48;;;;;;;8.38;4.93;;;12.70;99.90;;;;;;5034405;28;20223;-84
2023/09/03 00:58:16;;;;;;;7.95;4.90;;;12.70;99.90;;;;;;5037397;28;20723;-83
2023/09/03 01:00:44;;;;;;;7.95;5.22;;;12.70;99.90;;;;;;5034943;28;20713;-83
2023/09/03 01:03:13;;;;;;;11.48;5.05;;;12.70;99.90;;;;;;5037983;28;20201;-84
2023/09/03 01:05:41;;;;;;;8.05;5.63;;;12.70;99.90;;;;;;5038783;28;20678;-83
2023/09/03 01:08:09;;;;;;;11.13;5.18;;;12.70;99.90;;;;;;5030915;28;20672;-83
2023/09/03 01:10:39;;;;;;;9.45;5.03;;;12.70;99.90;;;;;;5037568;28;20289;-83
2023/09/03 01:13:20;;;;;;;9.88;5.38;;;12.60;99.90;;;;;;5031473;28;20714;-83
2023/09/03 01:15:51;;;;;;;10.07;5.13;;;12.60;99.90;;;;;;5040237;28;20592;-83
2023/09/03 01:18:25;;;;;;;10.80;5.50;;;12.70;99.90;;;;;;5036335;28;20688;-83
2023/09/03 01:21:30;;;;;;;7.38;4.82;;;12.70;99.90;;;;;;5038017;28;20297;-83
2023/09/03 01:24:20;;;;;;;8.02;4.75;;;12.60;99.90;;;;;;5054944;28;20198;-83
2023/09/03 01:27:26;;;;;;;7.85;4.32;;;12.60;99.90;;;;;;5035696;28;20792;-83
2023/09/03 01:29:53;;;;;;;10.82;4.65;;;12.60;99.90;;;;;;5032031;28;20831;-83
2023/09/03 01:32:22;;;;;;;9.93;4.57;;;12.60;99.90;;;;;;5035734;28;20687;-83
2023/09/03 01:34:51;;;;;;;6.05;4.07;;;12.60;99.90;;;;;;5027307;28;20255;-83
2023/09/03 01:37:18;;;;;;;5.75;3.67;;;12.70;99.90;;;;;;5041330;28;20666;-82
2023/09/03 01:39:46;;;;;;;7.10;4.15;;;12.60;99.90;;;;;;5041632;28;20198;-83
2023/09/03 01:42:14;;;;;;;7.50;4.40;;;12.60;99.90;;;;;;5036903;28;20843;-83
2023/09/03 01:44:41;;;;;;;9.13;4.22;;;12.70;99.90;;;;;;5038032;28;20193;-83
2023/09/03 01:47:58;;;;;;;4.63;3.50;;;12.60;99.90;;;;;;5037932;28;20239;-83
2023/09/03 01:50:49;;;;;;;7.03;4.22;;;12.70;99.90;;;;;;5011486;28;20202;-83
2023/09/03 01:53:27;;;;;;;8.10;4.28;;;12.60;99.90;;;;;;5034489;28;20214;-83
2023/09/03 01:55:59;;;;;;;6.00;4.05;;;12.60;99.90;;;;;;5038778;28;20204;-84
2023/09/03 01:58:30;;;;;;;7.10;3.70;;;12.60;99.90;;;;;;5037876;28;20186;-83
2023/09/03 02:00:59;;;;;;;7.15;3.95;;;12.70;99.90;;;;;;5029762;28;20597;-83
2023/09/03 02:03:28;;;;;;;5.78;3.95;;;12.60;99.90;;;;;;5038361;28;20186;-83
2023/09/03 02:05:55;;;;;;;7.15;4.45;;;12.50;99.90;;;;;;5037781;28;20271;-83
2023/09/03 02:08:23;;;;;;;5.63;3.88;;;12.60;99.90;;;;;;5021276;28;20751;-83
2023/09/03 02:10:51;;;;;;;6.93;3.70;;;12.50;99.90;;;;;;5029263;28;20204;-82
2023/09/03 02:13:20;;;;;;;7.65;3.65;;;12.40;99.90;;;;;;5035964;28;20236;-82
2023/09/03 02:15:48;;;;;;;6.70;4.10;;;12.50;99.90;;;;;;5028117;28;20224;-83
2023/09/03 02:18:16;;;;;;;7.88;4.15;;;12.40;99.90;;;;;;5038048;28;20200;-82
2023/09/03 02:20:44;;;;;;;7.32;4.13;;;12.30;99.90;;;;;;5040886;28;20664;-82
2023/09/03 02:23:11;;;;;;;6.78;4.10;;;12.30;99.90;;;;;;5042326;28;20201;-83
2023/09/03 02:25:39;;;;;;;9.20;4.40;;;12.40;99.90;;;;;;5043614;28;20197;-82
2023/09/03 02:28:07;;;;;;;12.43;4.35;;;12.40;99.90;;;;;;5042335;28;20265;-82
2023/09/03 02:30:34;;;;;;;5.95;4.03;;;12.40;99.90;;;;;;5037639;28;20198;-82
2023/09/03 02:33:02;;;;;;;7.28;4.00;;;12.40;99.90;;;;;;5037202;28;20221;-83
2023/09/03 02:35:29;;;;;;;8.82;4.22;;;12.40;99.90;;;;;;5044454;28;20549;-83
2023/09/03 02:37:58;;;;;;;6.85;4.10;;;12.40;99.90;;;;;;5037443;28;20250;-82
2023/09/03 02:40:25;;;;;;;8.48;4.10;;;12.40;99.90;;;;;;5030396;28;20341;-83
2023/09/03 02:42:53;;;;;;;8.02;4.10;;;12.40;99.90;;;;;;5041021;28;20605;-83
2023/09/03 02:45:20;;;;;;;7.53;3.58;;;12.30;99.90;;;;;;5037691;28;20194;-83
2023/09/03 02:47:48;;;;;;;5.68;3.72;;;12.40;99.90;;;;;;5037551;28;20202;-82
2023/09/03 02:50:16;;;;;;;5.35;3.60;;;12.50;99.90;;;;;;5038029;28;20190;-82
2023/09/03 02:52:43;;;;;;;6.88;3.88;;;12.50;99.90;;;;;;5033559;28;20201;-83
2023/09/03 02:55:12;;;;;;;7.15;3.88;;;12.50;99.90;;;;;;5035311;28;20190;-83
2023/09/03 02:57:43;;;;;;;11.75;4.38;;;12.50;99.90;;;;;;5037489;28;20223;-83
2023/09/03 03:00:11;;;;;;;7.30;4.30;;;12.50;99.90;;;;;;5034447;28;20190;-82
2023/09/03 03:02:39;;;;;;;6.47;4.00;;;12.40;99.90;;;;;;5036108;28;20235;-83
2023/09/03 03:05:07;;;;;;;8.20;4.55;;;12.40;99.90;;;;;;5036777;28;20189;-83
2023/09/03 03:07:37;;;;;;;7.25;4.00;;;12.40;99.90;;;;;;5036380;28;20197;-83
2023/09/03 03:10:05;;;;;;;11.00;4.40;;;12.40;99.90;;;;;;5030755;28;20201;-83
2023/09/03 03:12:33;;;;;;;7.55;3.63;;;12.40;99.90;;;;;;5035601;28;20233;-83
2023/09/03 03:15:01;;;;;;;6.40;3.72;;;12.40;99.90;;;;;;5029854;28;20258;-83
2023/09/03 03:17:28;;;;;;;6.65;4.75;;;12.50;99.90;;;;;;5037438;28;20177;-83
2023/09/03 03:19:56;;;;;;;6.55;4.22;;;12.40;99.90;;;;;;5036333;28;20190;-83
2023/09/03 03:22:25;;;;;;;6.47;4.30;;;12.30;99.90;;;;;;5034880;28;20194;-84
2023/09/03 03:24:52;;;;;;;6.75;3.90;;;12.40;99.90;;;;;;5040251;27;20190;-84
2023/09/03 03:27:20;;;;;;;12.68;4.22;;;12.50;99.90;;;;;;5036273;28;20282;-83
2023/09/03 03:29:47;;;;;;;6.85;4.47;;;12.60;99.90;;;;;;5041580;28;20188;-84
2023/09/03 03:32:19;;;;;;;7.72;4.45;;;12.50;99.90;;;;;;5038154;28;20230;-83
2023/09/03 03:34:51;;;;;;;9.05;4.53;;;12.50;99.90;;;;;;5027728;28;20193;-83
2023/09/03 03:37:18;;;;;;;10.60;4.50;;;12.50;99.90;;;;;;5035840;28;20667;-83
2023/09/03 03:39:49;;;;;;;7.40;4.53;;;12.50;99.90;;;;;;5039122;28;20597;-83
2023/09/03 03:42:19;;;;;;;6.57;3.60;;;12.50;99.90;;;;;;5037392;28;20616;-84
2023/09/03 03:44:46;;;;;;;6.57;4.40;;;12.50;99.90;;;;;;5039704;28;20835;-83
2023/09/03 03:47:14;;;;;;;8.48;4.20;;;12.50;99.90;;;;;;5034681;28;20735;-83
2023/09/03 03:49:43;;;;;;;5.68;4.20;;;12.50;99.90;;;;;;5031755;28;20204;-83
2023/09/03 03:52:11;;;;;;;7.85;4.43;;;12.50;99.90;;;;;;5038773;28;20220;-83
2023/09/03 03:54:38;;;;;;;7.18;4.25;;;12.50;99.90;;;;;;5032831;28;20259;-83
2023/09/03 03:57:06;;;;;;;6.85;4.03;;;12.50;99.90;;;;;;5034034;28;20705;-83
2023/09/03 03:59:33;;;;;;;8.70;4.63;;;12.50;99.90;;;;;;5040967;28;20181;-83
2023/09/03 04:02:01;;;;;;;8.60;4.22;;;12.50;99.90;;;;;;5039699;28;20181;-83
2023/09/03 04:04:28;;;;;;;7.88;4.20;;;12.50;99.90;;;;;;5038136;28;20281;-84
2023/09/03 04:06:56;;;;;;;6.72;4.32;;;12.50;99.90;;;;;;5031334;28;20197;-83
2023/09/03 04:09:23;;;;;;;9.00;4.93;;;12.60;99.90;;;;;;5038819;28;20679;-82
2023/09/03 04:11:52;;;;;;;8.60;4.57;;;12.60;99.90;;;;;;5036507;28;20190;-83
2023/09/03 04:14:19;;;;;;;7.50;4.45;;;12.60;99.90;;;;;;5039793;28;20893;-84
2023/09/03 04:16:47;;;;;;;7.25;4.70;;;12.60;99.90;;;;;;5034988;28;20195;-84
2023/09/03 04:19:14;;;;;;;11.50;5.30;;;12.50;99.90;;;;;;5046320;27;20181;-83
2023/09/03 04:21:42;;;;;;;8.93;4.50;;;12.50;99.90;;;;;;5039704;28;20196;-83
2023/09/03 04:24:09;;;;;;;8.68;5.15;;;12.40;99.90;;;;;;5031220;28;20648;-83
2023/09/03 04:26:37;;;;;;;6.47;4.22;;;12.40;99.90;;;;;;5039920;28;20225;-84
2023/09/03 04:29:06;;;;;;;8.50;4.82;;;12.40;99.90;;;;;;5033584;28;20206;-83
2023/09/03 04:31:37;;;;;;;8.10;5.22;;;12.40;99.90;;;;;;5045093;28;20288;-83
2023/09/03 04:34:05;;;;;;;12.65;6.18;;;12.40;99.90;;;;;;5034934;28;20214;-83
2023/09/03 04:36:34;;;;;;;8.40;5.40;;;12.40;99.90;;;;;;5037196;28;20196;-83
2023/09/03 04:39:03;;;;;;;11.43;6.90;;;12.40;99.90;;;;;;5031361;28;20919;-83
2023/09/03 04:41:31;;;;;;;14.13;6.97;;;12.40;99.90;;;;;;5034272;28;20681;-83
2023/09/03 04:44:07;;;;;;;10.38;6.72;;;12.40;99.90;;;;;;5041957;28;21037;-83
2023/09/03 04:46:41;;;;;;;13.73;7.90;;;12.50;99.90;;;;;;5034047;28;20193;-83
2023/09/03 04:49:08;;;;;;;13.43;8.38;;;12.50;99.90;;;;;;5034779;28;20281;-82
2023/09/03 04:51:36;;;;;;;13.60;8.30;;;12.40;99.90;;;;;;5035265;28;20250;-83
2023/09/03 04:54:04;;;;;;;16.35;9.40;;;12.40;99.90;;;;;;5031325;28;20201;-83
2023/09/03 04:56:31;;;;;;;14.18;7.93;;;12.40;99.90;;;;;;5040059;28;20553;-84
2023/09/03 04:58:59;;;;;;;15.43;8.45;;;12.50;99.90;;;;;;5049936;28;20202;-84
2023/09/03 05:01:27;;;;;;;14.88;8.45;;;12.50;99.90;;;;;;5028368;28;20763;-84
2023/09/03 05:03:57;;;;;;;13.40;7.78;;;12.60;99.90;;;;;;5031190;28;20208;-84
2023/09/03 05:06:26;;;;;;;15.45;9.20;;;12.60;99.90;;;;;;5035435;28;20209;-83
2023/09/03 05:08:57;;;;;;;14.52;7.88;;;12.60;99.90;;;;;;5032995;28;20194;-84
2023/09/03 05:11:26;;;;;;;11.68;7.47;;;12.60;99.90;;;;;;5032610;28;20203;-84
2023/09/03 05:13:53;;;;;;;15.10;8.30;;;12.70;99.90;;;;;;5033356;28;20702;-84
2023/09/03 05:16:23;;;;;;;12.02;7.78;;;12.70;99.90;;;;;;5032229;28;20193;-84
2023/09/03 05:18:51;;;;;;;13.02;7.55;;;12.70;99.90;;;;;;5021463;28;20206;-84
2023/09/03 05:21:19;;;;;;;13.38;7.25;;;12.80;99.90;;;;;;5034726;28;20262;-82
2023/09/03 05:23:47;;;;;;;17.52;9.07;;;12.80;99.90;;;;;;5039884;28;20201;-82
2023/09/03 05:26:15;;;;;;;14.57;7.85;;;12.80;99.90;;;;;;5036728;28;20181;-83
2023/09/03 05:28:42;;;;;;;16.23;8.55;;;12.80;99.90;;;;;;5029982;28;20190;-83
2023/09/03 05:31:11;;;;;;;15.98;7.97;;;12.80;99.90;;;;;;5029119;28;20578;-83
2023/09/03 05:33:40;;;;;;;14.80;8.07;;;12.80;99.90;;;;;;5032399;28;20279;-83
2023/09/03 05:36:09;;;;;;;14.25;8.18;;;12.80;99.90;;;;;;5027764;28;20277;-82
2023/09/03 05:38:39;;;;;;;13.80;8.65;;;12.80;99.90;;;;;;5028350;28;20182;-83
2023/09/03 05:41:06;;;;;;;13.40;7.63;;;12.90;99.90;;;;;;5033923;28;20205;-83
2023/09/03 05:43:34;;;;;;;12.73;7.65;;;12.90;99.90;;;;;;5021195;28;20287;-83
2023/09/03 05:46:02;;;;;;;12.07;7.47;;;12.90;99.90;;;;;;5028794;28;20671;-83
2023/09/03 05:48:31;;;;;;;12.50;7.88;;;12.90;99.90;;;;;;5037469;28;20292;-83
2023/09/03 05:51:03;;;;;;;12.18;7.57;;;13.00;99.90;;;;;;5038826;28;20276;-83
2023/09/03 05:53:34;;;;;;;10.73;7.45;;;13.00;99.90;;;;;;5027503;28;20209;-84
2023/09/03 05:56:06;;;;;;;11.70;8.20;;;13.10;99.90;;;;;;5042352;28;20205;-82
2023/09/03 05:58:35;;;;;;;16.25;8.73;;;13.00;99.90;;;;;;5039661;28;20202;-84
2023/09/03 06:01:08;;;;;;;12.90;8.27;;;13.00;99.90;;;;;;5028874;28;20182;-83
2023/09/03 06:03:37;;;;;;;14.65;9.25;;;13.10;99.90;;;;;;5037723;28;20193;-83
2023/09/03 06:06:10;;;;;;;15.60;9.30;;;13.10;99.90;;;;;;5036152;28;20194;-83
2023/09/03 06:08:39;;;;;;;14.68;9.25;;;13.00;99.90;;;;;;5033150;28;20209;-83
2023/09/03 06:11:06;;;;;;;15.82;9.35;;;13.00;99.90;;;;;;5033763;28;20189;-83
2023/09/03 06:13:34;;;;;;;11.80;8.10;;;12.90;99.90;;;;;;5038428;28;20225;-83
2023/09/03 06:16:01;;;;;;;13.48;8.93;;;12.90;99.90;;;;;;5034872;28;20193;-83
2023/09/03 06:18:29;;;;;;;12.70;8.15;;;12.90;99.90;;;;;;5030388;28;20196;-83
2023/09/03 06:20:57;;;;;;;16.15;9.35;;;12.80;99.90;;;;;;5038371;28;20188;-83
2023/09/03 06:23:26;;;;;;;11.65;7.47;;;12.80;99.90;;;;;;5037370;28;20671;-83
2023/09/03 06:25:53;;;;;;;12.35;7.78;;;12.90;99.90;;;;;;5036994;28;20186;-83
2023/09/03 06:28:21;;;;;;;14.38;8.45;;;12.90;99.90;;;;;;5038190;27;20193;-83
2023/09/03 06:30:49;;;;;;;15.13;8.60;;;12.90;99.90;;;;;;5037283;28;20598;-83
2023/09/03 06:33:17;;;;;;;14.60;9.13;;;12.90;99.90;;;;;;5037005;28;20207;-83
2023/09/03 06:35:44;;;;;;;17.90;9.88;;;12.80;99.90;;;;;;5019146;28;20197;-82
2023/09/03 06:38:12;;;;;;;13.85;8.25;;;12.80;99.90;;;;;;5033164;28;20186;-82
2023/09/03 06:40:39;;;;;;;15.07;9.27;;;12.80;99.90;;;;;;5037972;28;20278;-83
2023/09/03 06:43:07;;;;;;;15.55;9.15;;;12.90;99.90;;;;;;5037189;28;20205;-83
2023/09/03 06:45:35;;;;;;;13.13;8.98;;;12.90;99.90;;;;;;5037629;28;20662;-84
2023/09/03 06:48:02;;;;;;;12.93;7.65;;;12.90;99.90;;;;;;5028386;28;20193;-83
2023/09/03 06:50:30;;;;;;;15.82;9.25;;;12.90;99.90;;;;;;5033746;28;20200;-83
2023/09/03 06:52:58;;;;;;;15.93;9.40;;;12.90;99.90;;;;;;5035567;28;20209;-83
2023/09/03 06:55:25;;;;;;;15.02;8.93;;;12.90;99.90;;;;;;5036667;28;20192;-84
2023/09/03 06:57:53;;;;;;;14.73;9.00;;;13.00;99.90;;;;;;5036604;28;20205;-84
2023/09/03 07:00:20;;;;;;;14.60;8.93;;;13.00;99.90;;;;;;5033453;28;20255;-84
2023/09/03 07:02:48;;;;;;;12.77;8.15;;;13.00;99.90;;;;;;5036827;28;20238;-83
2023/09/03 07:05:16;;;;;;;11.52;7.80;;;13.10;99.90;;;;;;5034023;28;20277;-84
2023/09/03 07:07:45;;;;;;;14.05;8.48;;;13.10;99.90;;;;;;5037881;28;20272;-82
2023/09/03 07:10:12;;;;;;;13.32;7.65;;;13.10;99.90;;;;;;5042165;28;20699;-83
2023/09/03 07:12:40;;;;;;;14.50;8.20;;;13.20;99.90;;;;;;5039680;28;20740;-84
2023/09/03 07:15:08;;;;;;;12.45;7.53;;;13.20;99.90;;;;;;5040773;28;20185;-83
2023/09/03 07:17:36;;;;;;;11.48;7.95;;;13.20;99.90;;;;;;5113721;27;20193;-83
2023/09/03 07:20:04;;;;;;;13.57;7.93;;;13.20;99.90;;;;;;5037997;28;20246;-83
2023/09/03 07:22:31;;;;;;;11.27;6.82;;;13.20;99.90;;;;;;5040740;28;20181;-82
2023/09/03 07:24:59;;;;;;;12.07;7.20;;;13.20;99.90;;;;;;5041919;28;20242;-83
2023/09/03 07:27:27;;;;;;;10.60;6.78;;;13.20;99.90;;;;;;5037506;28;20186;-83
2023/09/03 07:29:54;;;;;;;9.93;6.30;;;13.20;99.90;;;;;;5038499;28;20185;-83
2023/09/03 07:32:22;;;;;;;12.60;6.50;;;13.20;99.90;;;;;;5037999;27;20555;-82
2023/09/03 07:34:51;;;;;;;10.02;6.40;;;13.20;99.90;;;;;;5036269;28;20285;-83
2023/09/03 07:37:19;;;;;;;10.77;6.43;;;13.20;99.90;;;;;;5037081;28;20186;-83
2023/09/03 07:39:46;;;;;;;9.38;6.32;;;13.20;99.90;;;;;;5028076;28;20601;-83
2023/09/03 07:42:14;;;;;;;11.45;6.72;;;13.30;99.90;;;;;;5033469;28;20190;-82
2023/09/03 07:44:41;;;;;;;10.10;5.95;;;13.30;99.90;;;;;;5036253;28;20190;-83
2023/09/03 07:47:09;;;;;;;10.05;5.72;;;13.40;99.90;;;;;;5036613;28;20197;-83
2023/09/03 07:49:37;;;;;;;9.20;6.15;;;13.40;99.90;;;;;;5036710;28;20197;-82
2023/09/03 07:52:06;;;;;;;8.68;5.50;;;13.40;99.90;;;;;;5036300;28;20655;-83
2023/09/03 07:54:34;;;;;;;8.52;5.32;;;13.40;99.90;;;;;;5029349;27;20205;-83
2023/09/03 07:57:02;;;;;;;8.95;4.70;;;13.40;99.90;;;;;;5037556;28;20178;-82
2023/09/03 07:59:29;;;;;;;7.80;4.53;;;13.40;99.90;;;;;;5034069;28;20220;-83
2023/09/03 08:02:00;;;;;;;8.88;4.95;;;13.50;99.90;;;;;;5029945;28;20200;-82
2023/09/03 08:04:28;;;;;;;6.85;4.55;;;13.50;99.90;;;;;;5035801;28;20224;-83
2023/09/03 08:06:56;;;;;;;6.65;4.47;;;13.50;99.90;;;;;;5037774;28;20220;-83
2023/09/03 08:09:24;;;;;;;10.05;5.43;;;13.60;99.90;;;;;;5039527;28;20621;-82
2023/09/03 08:11:52;;;;;;;8.52;4.97;;;13.70;99.90;;;;;;5035434;28;20186;-83
2023/09/03 08:14:21;;;;;;;7.70;4.50;;;13.70;99.90;;;;;;5037141;28;20221;-83
2023/09/03 08:16:48;;;;;;;6.15;4.53;;;13.70;99.90;;;;;;5037816;28;20273;-83
2023/09/03 08:19:16;;;;;;;6.47;4.43;;;13.70;99.90;;;;;;5037135;28;20186;-82
2023/09/03 08:21:44;;;;;;;12.05;5.00;;;13.80;99.90;;;;;;5034094;28;20193;-83
2023/09/03 08:24:12;;;;;;;5.68;4.10;;;13.80;99.90;;;;;;5034845;28;20193;-82
2023/09/03 08:26:40;;;;;;;6.15;3.88;;;14.00;99.90;;;;;;5037135;28;20246;-83
2023/09/03 08:29:08;;;;;;;7.32;4.40;;;14.00;99.90;;;;;;5037429;28;20207;-82
2023/09/03 08:31:36;;;;;;;6.38;4.40;;;14.00;99.90;;;;;;5031543;28;20956;-83
2023/09/03 08:34:04;;;;;;;7.10;4.55;;;14.00;99.90;;;;;;5037183;28;20205;-82
2023/09/03 08:36:32;;;;;;;6.35;4.80;;;14.10;99.90;;;;;;5031315;28;20185;-82
2023/09/03 08:39:01;;;;;;;7.82;4.65;;;14.20;99.90;;;;;;5035210;28;20237;-82
2023/09/03 08:41:31;;;;;;;8.40;4.85;;;14.20;99.90;;;;;;5031141;28;20182;-82
2023/09/03 08:44:04;;;;;;;6.72;4.88;;;14.20;99.90;;;;;;5037706;28;20242;-82
2023/09/03 08:46:33;;;;;;;7.38;4.60;;;14.30;99.90;;;;;;5036605;28;20189;-82
2023/09/03 08:49:01;;;;;;;10.38;4.88;;;14.30;99.90;;;;;;5033748;28;20199;-83
2023/09/03 08:51:32;;;;;;;8.05;5.65;;;14.40;99.90;;;;;;5034983;28;20190;-82
2023/09/03 08:54:01;;;;;;;8.65;5.18;;;14.40;99.90;;;;;;5031669;28;20220;-82
2023/09/03 08:56:33;;;;;;;8.85;5.10;;;14.40;99.90;;;;;;5036743;28;20214;-83
2023/09/03 08:59:00;;;;;;;7.75;5.00;;;14.50;99.90;;;;;;5025981;28;20209;-83
2023/09/03 09:01:30;;;;;;;10.70;5.47;;;14.50;99.90;;;;;;5028011;28;20185;-82
2023/09/03 09:04:04;;;;;;;8.25;5.28;;;14.50;99.90;;;;;;5035601;28;20198;-83
2023/09/03 09:06:33;;;;;;;8.43;4.50;;;14.50;99.90;;;;;;5035104;28;20616;-82
2023/09/03 09:09:02;;;;;;;6.72;4.90;;;14.60;99.90;;;;;;5039232;28;20239;-83
2023/09/03 09:11:39;;;;;;;8.60;5.70;;;14.60;99.90;;;;;;5037317;28;20198;-82
2023/09/03 09:14:30;;;;;;;7.47;4.72;;;14.80;99.90;;;;;;5036025;28;20584;-82
2023/09/03 09:16:58;;;;;;;7.47;4.95;;;15.10;99.90;;;;;;5036394;28;20235;-84
2023/09/03 09:19:25;;;;;;;10.90;4.80;;;15.00;99.90;;;;;;5039912;28;20182;-82
2023/09/03 09:21:53;;;;;;;8.30;4.28;;;15.00;99.90;;;;;;5040331;28;20212;-83
2023/09/03 09:24:21;;;;;;;11.57;5.25;;;14.90;99.90;;;;;;5039706;28;20668;-81
2023/09/03 09:26:49;;;;;;;6.15;4.25;;;15.00;99.90;;;;;;5037601;28;20205;-81
2023/09/03 09:29:21;;;;;;;8.90;4.88;;;15.10;99.90;;;;;;5040047;28;20196;-82
2023/09/03 09:31:49;;;;;;;6.80;5.05;;;15.30;99.90;;;;;;5039083;28;20181;-83
2023/09/03 09:34:18;;;;;;;6.90;4.80;;;15.30;99.90;;;;;;5031843;28;20218;-83
2023/09/03 09:36:56;;;;;;;8.48;4.47;;;15.30;99.90;;;;;;5045814;28;20182;-84
2023/09/03 09:39:24;;;;;;;8.25;4.20;;;15.30;99.90;;;;;;5041124;28;20185;-83
2023/09/03 09:42:10;;;;;;;7.20;4.45;;;15.40;99.90;;;;;;5036036;28;20269;-83
2023/09/03 09:44:37;;;;;;;6.28;4.38;;;15.50;99.90;;;;;;5037760;28;20774;-83
2023/09/03 09:47:23;;;;;;;5.47;4.13;;;15.50;99.90;;;;;;5035592;28;20611;-83
2023/09/03 09:49:51;;;;;;;8.15;4.50;;;15.60;99.90;;;;;;5037260;28;20197;-83
2023/09/03 09:52:19;;;;;;;8.05;4.20;;;15.70;99.90;;;;;;5031114;28;20198;-83
2023/09/03 09:54:48;;;;;;;10.82;4.55;;;15.80;99.90;;;;;;5037376;28;20293;-82
2023/09/03 09:57:22;;;;;;;6.78;3.97;;;15.60;99.90;;;;;;5031114;28;20662;-83
2023/09/03 09:59:59;;;;;;;6.10;3.85;;;15.60;99.90;;;;;;5037565;28;20186;-83
2023/09/03 10:02:27;;;;;;;6.35;4.00;;;15.60;99.90;;;;;;5031724;28;20690;-83
2023/09/03 10:04:56;;;;;;;7.15;4.20;;;15.50;99.90;;;;;;5030766;28;20209;-83
2023/09/03 10:07:24;;;;;;;7.10;4.32;;;15.50;99.90;;;;;;5036008;28;20246;-83
2023/09/03 10:09:52;;;;;;;7.13;4.00;;;15.50;99.90;;;;;;5038221;28;20193;-83
2023/09/03 10:12:19;;;;;;;5.97;4.18;;;15.50;99.90;;;;;;5036863;28;20273;-83
2023/09/03 10:14:47;;;;;;;11.55;4.10;;;15.50;99.90;;;;;;5036536;28;20202;-83
2023/09/03 10:17:15;;;;;;;6.43;3.55;;;15.50;99.90;;;;;;5034289;28;20557;-83
2023/09/03 10:20:04;;;;;;;6.05;3.92;;;15.60;99.90;;;;;;5041382;28;20185;-84
2023/09/03 10:22:36;;;;;;;8.32;4.20;;;15.60;99.90;;;;;;5035867;28;20197;-83
2023/09/03 10:25:14;;;;;;;5.20;3.55;;;15.70;99.90;;;;;;5039245;28;20711;-82
2023/09/03 10:27:53;;;;;;;7.47;3.50;;;15.70;99.90;;;;;;5039714;28;20185;-82
2023/09/03 10:30:28;;;;;;;8.20;3.78;;;15.70;99.90;;;;;;5036669;28;20193;-83
2023/09/03 10:32:56;;;;;;;8.57;3.78;;;15.80;99.90;;;;;;5036135;28;20192;-82
2023/09/03 10:35:24;;;;;;;5.43;3.53;;;15.80;99.90;;;;;;5035981;28;20219;-82
2023/09/03 10:37:52;;;;;;;6.18;4.13;;;15.80;99.90;;;;;;5038406;28;20272;-82
2023/09/03 10:40:24;;;;;;;7.97;3.85;;;15.70;99.90;;;;;;5029940;28;20188;-83
2023/09/03 10:42:54;;;;;;;6.05;3.90;;;15.70;99.90;;;;;;5038971;28;20182;-84
2023/09/03 10:45:22;;;;;;;6.90;4.10;;;15.90;99.90;;;;;;5033538;28;20947;-83
2023/09/03 10:48:04;;;;;;;6.93;3.97;;;16.10;99.90;;;;;;5036735;28;20245;-82
2023/09/03 10:50:45;;;;;;;6.45;3.78;;;16.40;99.90;;;;;;5037123;28;20199;-83
2023/09/03 10:53:44;;;;;;;6.55;3.83;;;16.60;99.90;;;;;;5036188;28;20551;-83
2023/09/03 10:56:13;;;;;;;9.65;4.38;;;16.70;99.90;;;;;;5029410;28;20194;-83
2023/09/03 10:58:58;;;;;;;8.68;4.72;;;16.70;99.90;;;;;;5036290;28;20185;-83
2023/09/03 11:01:30;;;;;;;9.32;4.53;;;16.60;99.90;;;;;;5035876;28;20186;-83
2023/09/03 11:04:06;;;;;;;7.40;4.10;;;16.80;99.90;;;;;;5035433;28;20235;-83
2023/09/03 11:06:36;;;;;;;5.82;3.90;;;16.70;99.90;;;;;;5037659;28;20189;-83
2023/09/03 11:09:05;;;;;;;10.65;4.22;;;16.70;99.90;;;;;;5032999;28;20679;-83
2023/09/03 11:11:35;;;;;;;8.10;4.30;;;16.80;99.90;;;;;;5037220;28;20178;-83
2023/09/03 11:14:03;;;;;;;7.22;3.85;;;16.80;99.90;;;;;;5035733;28;20698;-84
2023/09/03 11:16:33;;;;;;;7.53;3.45;;;16.70;99.90;;;;;;5035982;28;20269;-83
2023/09/03 11:19:04;;;;;;;7.70;4.00;;;16.80;99.90;;;;;;5038444;28;20201;-84
2023/09/03 11:21:33;;;;;;;4.68;3.28;;;16.80;99.90;;;;;;5041248;28;20198;-83
2023/09/03 11:24:02;;;;;;;5.95;2.95;;;16.70;99.90;;;;;;5033929;28;20198;-83
2023/09/03 11:26:32;;;;;;;6.13;3.22;;;16.80;99.90;;;;;;5032295;28;20194;-84
2023/09/03 11:29:02;;;;;;;7.07;3.95;;;17.00;99.90;;;;;;5035863;28;20714;-83
2023/09/03 11:31:32;;;;;;;5.45;3.38;;;17.20;99.90;;;;;;5034293;28;20217;-83
2023/09/03 11:34:16;;;;;;;5.78;3.53;;;17.20;99.90;;;;;;5039434;28;20202;-83
2023/09/03 11:36:51;;;;;;;6.07;3.35;;;17.20;99.90;;;;;;5033586;28;20205;-84
2023/09/03 11:39:19;;;;;;;6.22;3.70;;;17.40;99.90;;;;;;5037805;28;20202;-83
2023/09/03 11:41:48;;;;;;;7.25;3.83;;;17.30;99.90;;;;;;5035154;28;20724;-82
2023/09/03 11:44:24;;;;;;;6.50;4.07;;;17.10;99.90;;;;;;5044009;28;20558;-82
2023/09/03 11:47:04;;;;;;;7.80;4.13;;;16.90;99.90;;;;;;5043052;28;20262;-83
2023/09/03 11:49:32;;;;;;;6.05;3.63;;;17.00;99.90;;;;;;5038250;28;20186;-83
2023/09/03 11:52:15;;;;;;;7.72;3.30;;;17.20;99.90;;;;;;5033014;28;20193;-83
2023/09/03 11:54:51;;;;;;;8.90;3.95;;;17.10;99.90;;;;;;5030217;28;20714;-82
2023/09/03 11:57:32;;;;;;;8.38;3.58;;;16.90;99.90;;;;;;5042306;28;20185;-83
2023/09/03 12:00:07;;;;;;;5.78;3.50;;;16.90;99.90;;;;;;5038321;28;20213;-83
2023/09/03 12:02:34;;;;;;;4.30;3.22;;;17.40;99.90;;;;;;5036178;28;20266;-83
2023/09/03 12:05:02;;;;;;;7.60;3.38;;;17.50;99.90;;;;;;5034907;28;20692;-83
2023/09/03 12:07:30;;;;;;;6.13;3.30;;;17.20;99.90;;;;;;5033160;28;20190;-83
2023/09/03 12:09:58;;;;;;;7.95;3.67;;;17.10;99.90;;;;;;5036899;28;20270;-83
2023/09/03 12:12:27;;;;;;;5.95;3.63;;;17.50;99.90;;;;;;5026341;28;20221;-83
2023/09/03 12:14:54;;;;;;;6.53;3.80;;;17.60;99.90;;;;;;5036945;28;20213;-83
2023/09/03 12:17:27;;;;;;;6.05;3.50;;;17.80;99.90;;;;;;5037763;28;20193;-83
2023/09/03 12:19:55;;;;;;;5.05;3.38;;;18.10;99.90;;;;;;5037698;28;20217;-83
2023/09/03 12:22:23;;;;;;;6.43;3.13;;;18.10;99.90;;;;;;5037586;28;20246;-83
2023/09/03 12:24:53;;;;;;;4.70;3.05;;;17.80;99.90;;;;;;5030079;28;20500;-83
2023/09/03 12:27:21;;;;;;;5.90;3.35;;;17.60;99.90;;;;;;5029009;27;20260;-83
2023/09/03 12:29:55;;;;;;;5.47;3.13;;;17.40;99.90;;;;;;5031455;28;20575;-83
2023/09/03 12:32:33;;;;;;;6.22;3.25;;;17.30;99.90;;;;;;5030599;28;20193;-82
2023/09/03 12:35:14;;;;;;;5.60;2.92;;;17.40;99.90;;;;;;5037067;28;20204;-83
2023/09/03 12:37:42;;;;;;;5.50;3.13;;;17.70;99.90;;;;;;5038517;28;20248;-82
2023/09/03 12:40:10;;;;;;;6.68;3.20;;;18.00;99.90;;;;;;5033873;28;20190;-83
2023/09/03 12:42:38;;;;;;;4.18;2.90;;;18.00;99.90;;;;;;5029606;28;20289;-83
2023/09/03 12:45:07;;;;;;;7.80;3.33;;;18.10;99.90;;;;;;5035357;28;20213;-83
2023/09/03 12:47:35;;;;;;;5.90;2.72;;;17.80;99.90;;;;;;5036992;28;20265;-83
2023/09/03 12:50:03;;;;;;;4.63;2.88;;;17.80;99.90;;;;;;5044185;28;20279;-83
2023/09/03 12:52:31;;;;;;;5.70;3.33;;;18.10;99.90;;;;;;5038605;28;20241;-83
2023/09/03 12:54:58;;;;;;;4.72;2.88;;;17.70;99.90;;;;;;5043073;28;20293;-83
2023/09/03 12:57:26;;;;;;;5.65;3.08;;;17.70;99.90;;;;;;5042361;28;20185;-82